Time;durP1;ratioP1;P1;durP2;ratioP2;P2;SDS_P1;SDS_P2;PMS_P1;PMS_P2;Temp;Humidity;BMP_temperature;BMP_pressure;BME280_temperature;BME280_humidity;BME280_pressure;Samples;Min_cycle;Max_cycle;Signal;HPM_P1;HPM_P2
2021/05/29 00:01:51;;;;;;;10.00;7.60;;;;;;;8.95;83.91;100490.13;4934343;29;20071;-70
2021/05/29 00:04:17;;;;;;;10.90;6.78;;;;;;;8.78;84.20;100495.97;4932778;29;20044;-70
2021/05/29 00:06:42;;;;;;;9.40;7.05;;;;;;;8.69;84.84;100497.25;4921510;29;20410;-70
2021/05/29 00:09:08;;;;;;;13.98;8.15;;;;;;;8.71;85.19;100491.66;4933500;29;20090;-70
2021/05/29 00:11:34;;;;;;;13.73;8.88;;;;;;;8.59;85.51;100488.81;4919806;29;20110;-70
2021/05/29 00:13:59;;;;;;;13.70;8.32;;;;;;;8.50;85.47;100490.88;4931278;29;20078;-70
2021/05/29 00:16:26;;;;;;;11.57;8.00;;;;;;;8.44;86.97;100489.84;4929334;29;20173;-70
2021/05/29 00:18:52;;;;;;;10.05;7.88;;;;;;;8.66;86.98;100491.47;4936973;29;20132;-71
2021/05/29 00:21:17;;;;;;;17.10;8.15;;;;;;;8.75;86.20;100490.19;4930285;29;20501;-70
2021/05/29 00:23:43;;;;;;;13.13;8.18;;;;;;;8.82;86.07;100491.00;4923238;29;20394;-70
2021/05/29 00:26:09;;;;;;;11.63;8.35;;;;;;;8.81;85.60;100494.72;4924828;29;20111;-70
2021/05/29 00:28:36;;;;;;;16.23;8.38;;;;;;;8.78;84.78;100492.47;4928757;29;20135;-70
2021/05/29 00:31:03;;;;;;;11.57;8.40;;;;;;;8.59;85.07;100492.31;4927734;29;20039;-70
2021/05/29 00:33:28;;;;;;;10.57;7.90;;;;;;;8.46;85.65;100489.63;4920275;29;20157;-70
2021/05/29 00:35:55;;;;;;;15.90;7.72;;;;;;;8.31;85.87;100488.00;4928513;29;20115;-73
2021/05/29 00:38:21;;;;;;;12.30;8.60;;;;;;;8.22;86.51;100488.44;4927689;29;20401;-71
2021/05/29 00:40:47;;;;;;;14.52;8.85;;;;;;;8.13;87.22;100488.66;4919814;29;20032;-71
2021/05/29 00:43:14;;;;;;;11.15;8.30;;;;;;;8.02;87.77;100497.34;4925440;29;20042;-71
2021/05/29 00:45:39;;;;;;;12.57;8.05;;;;;;;7.95;87.98;100489.28;4918940;29;20035;-71
2021/05/29 00:48:06;;;;;;;14.95;8.10;;;;;;;7.89;88.32;100488.22;4933720;29;20500;-70
2021/05/29 00:50:32;;;;;;;9.90;7.55;;;;;;;7.86;88.30;100491.34;4931378;29;20043;-70
2021/05/29 00:52:58;;;;;;;11.90;8.52;;;;;;;7.83;88.54;100489.06;4916442;29;20055;-70
2021/05/29 00:55:25;;;;;;;13.05;8.43;;;;;;;7.89;88.38;100496.28;4919193;29;20083;-70
2021/05/29 00:57:51;;;;;;;12.32;8.20;;;;;;;8.01;88.21;100501.06;4920326;29;21090;-70
2021/05/29 01:00:20;;;;;;;11.10;7.28;;;;;;;8.01;87.08;100496.50;4935449;28;20501;-70
2021/05/29 01:02:47;;;;;;;11.82;7.93;;;;;;;7.98;87.80;100499.59;4931338;28;20071;-70
2021/05/29 01:05:14;;;;;;;10.25;7.55;;;;;;;7.90;87.83;100497.13;4920194;29;20070;-70
2021/05/29 01:07:40;;;;;;;12.82;7.85;;;;;;;7.88;88.45;100501.88;4918960;29;20546;-71
2021/05/29 01:10:07;;;;;;;15.65;8.45;;;;;;;7.86;87.91;100490.53;4920204;29;20031;-70
2021/05/29 01:12:33;;;;;;;12.65;8.35;;;;;;;7.89;88.14;100492.78;4924299;29;20036;-71
2021/05/29 01:15:00;;;;;;;13.07;8.55;;;;;;;7.85;87.72;100495.03;4927303;29;20442;-71
2021/05/29 01:17:29;;;;;;;10.23;7.80;;;;;;;7.86;88.73;100494.00;4935561;29;20038;-70
2021/05/29 01:19:55;;;;;;;13.13;7.88;;;;;;;7.87;88.33;100498.34;4928560;29;20122;-70
2021/05/29 01:22:52;;;;;;;10.70;8.07;;;;;;;7.91;88.61;100504.13;4923738;29;20071;-70
2021/05/29 01:25:36;;;;;;;10.48;7.07;;;;;;;7.94;87.58;100505.56;4906783;29;20048;-71
2021/05/29 01:28:06;;;;;;;10.40;7.75;;;;;;;7.93;88.10;100507.44;4948438;29;20035;-70
2021/05/29 01:30:45;;;;;;;9.90;7.72;;;;;;;7.88;88.09;100510.72;4932358;29;20498;-71
2021/05/29 01:33:14;;;;;;;9.18;8.18;;;;;;;7.85;88.71;100507.66;4933622;29;20039;-71
2021/05/29 01:35:42;;;;;;;12.10;8.55;;;;;;;7.86;88.59;100518.16;4932880;29;20154;-70
2021/05/29 01:38:07;;;;;;;13.70;9.85;;;;;;;7.87;88.75;100516.31;4934222;29;20028;-71
2021/05/29 01:40:34;;;;;;;14.10;10.05;;;;;;;7.93;89.02;100517.34;4918382;29;20035;-71
2021/05/29 01:42:59;;;;;;;12.07;9.85;;;;;;;8.09;88.30;100516.09;4923644;29;20371;-70
2021/05/29 01:45:26;;;;;;;14.20;9.10;;;;;;;8.18;88.50;100518.38;4914863;29;20031;-70
2021/05/29 01:47:52;;;;;;;9.90;8.48;;;;;;;8.37;87.43;100520.41;4933969;29;20028;-70
2021/05/29 01:50:18;;;;;;;12.10;8.70;;;;;;;8.49;87.45;100524.97;4929947;29;20493;-70
2021/05/29 01:52:52;;;;;;;10.23;7.72;;;;;;;8.53;86.50;100528.06;4930802;29;20167;-70
2021/05/29 01:55:20;;;;;;;15.45;7.85;;;;;;;8.56;86.51;100529.50;4929071;29;20040;-70
2021/05/29 01:57:46;;;;;;;9.75;7.25;;;;;;;8.47;86.67;100527.03;4932100;29;20482;-71
2021/05/29 02:00:13;;;;;;;10.43;8.00;;;;;;;8.46;86.77;100522.69;4930164;29;20055;-71
2021/05/29 02:02:39;;;;;;;11.20;7.63;;;;;;;8.48;86.95;100523.31;4931444;29;20048;-71
2021/05/29 02:05:14;;;;;;;10.40;7.40;;;;;;;8.43;86.71;100530.31;4928208;29;20064;-70
2021/05/29 02:07:40;;;;;;;13.55;8.25;;;;;;;8.41;87.21;100525.16;4932514;29;20051;-70
2021/05/29 02:10:07;;;;;;;10.43;8.32;;;;;;;8.46;87.14;100520.00;4925015;28;20144;-70
2021/05/29 02:12:48;;;;;;;9.85;7.88;;;;;;;8.53;87.01;100516.50;4930786;29;20036;-70
2021/05/29 02:15:17;;;;;;;12.50;8.40;;;;;;;8.53;87.15;100516.50;4921237;29;20115;-71
2021/05/29 02:17:44;;;;;;;11.68;8.35;;;;;;;8.52;87.48;100515.66;4932402;29;20424;-70
2021/05/29 02:20:12;;;;;;;11.80;8.57;;;;;;;8.59;86.99;100519.16;4922354;29;20898;-70
2021/05/29 02:22:38;;;;;;;12.18;8.80;;;;;;;8.78;86.69;100513.94;4928460;29;20040;-70
2021/05/29 02:25:05;;;;;;;11.15;7.45;;;;;;;8.76;86.70;100516.00;4930717;29;20039;-70
2021/05/29 02:27:31;;;;;;;9.93;7.30;;;;;;;8.74;87.60;100515.41;4918169;29;20040;-70
2021/05/29 02:29:57;;;;;;;9.50;7.03;;;;;;;8.75;87.04;100517.91;4926525;29;20071;-70
2021/05/29 02:32:23;;;;;;;10.90;7.93;;;;;;;8.83;86.35;100524.06;4926879;29;20060;-70
2021/05/29 02:34:49;;;;;;;11.13;7.97;;;;;;;8.90;86.80;100522.19;4920711;29;20028;-70
2021/05/29 02:37:14;;;;;;;9.02;7.00;;;;;;;8.94;87.33;100528.78;4923203;29;20043;-70
2021/05/29 02:39:40;;;;;;;9.57;7.47;;;;;;;9.00;86.71;100527.94;4924769;29;20035;-71
2021/05/29 02:42:06;;;;;;;9.88;7.25;;;;;;;9.05;86.19;100533.50;4940282;29;20477;-71
2021/05/29 02:44:32;;;;;;;15.63;7.85;;;;;;;9.12;87.47;100538.00;4958796;28;20421;-71
2021/05/29 02:46:57;;;;;;;9.10;7.28;;;;;;;9.19;86.91;100533.44;4930226;29;20405;-71
2021/05/29 02:49:23;;;;;;;8.57;6.72;;;;;;;9.34;85.33;100539.34;4921306;29;20043;-71
2021/05/29 02:51:49;;;;;;;11.35;7.10;;;;;;;9.58;84.43;100536.13;4933353;29;20038;-71
2021/05/29 02:54:15;;;;;;;9.25;6.85;;;;;;;9.55;84.12;100534.69;4927384;29;20492;-70
2021/05/29 02:56:41;;;;;;;10.27;6.60;;;;;;;9.54;84.59;100538.41;4917977;29;20076;-70
2021/05/29 02:59:06;;;;;;;9.15;5.78;;;;;;;9.56;84.21;100536.34;4928490;29;20063;-70
2021/05/29 03:01:32;;;;;;;12.32;6.60;;;;;;;9.55;84.84;100539.25;4927477;29;20059;-70
2021/05/29 03:03:57;;;;;;;8.65;6.78;;;;;;;9.49;85.34;100547.16;4915979;29;20461;-71
2021/05/29 03:06:23;;;;;;;7.93;6.35;;;;;;;9.46;85.70;100546.75;4929917;29;20130;-70
2021/05/29 03:08:49;;;;;;;8.75;6.50;;;;;;;9.42;86.13;100542.84;4927187;29;20032;-70
2021/05/29 03:11:14;;;;;;;8.90;6.55;;;;;;;9.40;86.06;100547.59;4920119;29;20044;-70
2021/05/29 03:13:40;;;;;;;9.18;6.40;;;;;;;9.44;85.19;100541.59;4936115;29;20039;-71
2021/05/29 03:16:05;;;;;;;9.57;6.95;;;;;;;9.45;85.63;100542.41;4932018;28;20046;-70
2021/05/29 03:18:31;;;;;;;8.48;6.95;;;;;;;9.41;86.02;100551.94;4922800;29;20064;-70
2021/05/29 03:20:58;;;;;;;8.82;6.93;;;;;;;9.39;86.45;100544.09;4914541;29;20115;-70
2021/05/29 03:23:25;;;;;;;14.52;7.80;;;;;;;9.37;87.06;100548.88;4927435;29;20028;-70
2021/05/29 03:25:51;;;;;;;10.35;7.53;;;;;;;9.36;86.92;100541.84;4920689;29;20083;-70
2021/05/29 03:28:17;;;;;;;8.23;7.43;;;;;;;9.38;87.73;100550.53;4931262;29;20094;-71
2021/05/29 03:30:43;;;;;;;13.25;8.48;;;;;;;9.39;86.96;100549.47;4934133;29;20032;-70
2021/05/29 03:33:11;;;;;;;12.48;7.57;;;;;;;9.43;86.95;100545.31;4932694;29;20035;-71
2021/05/29 03:35:37;;;;;;;8.73;7.07;;;;;;;9.47;86.67;100541.16;4928139;29;20032;-70
2021/05/29 03:38:03;;;;;;;10.05;6.82;;;;;;;9.52;86.58;100552.09;4917297;29;20059;-71
2021/05/29 03:40:29;;;;;;;10.70;7.35;;;;;;;9.71;85.77;100552.19;4924937;29;20089;-71
2021/05/29 03:42:55;;;;;;;9.10;6.85;;;;;;;9.73;85.26;100552.00;4945267;28;20425;-70
2021/05/29 03:45:21;;;;;;;12.02;7.55;;;;;;;9.77;85.27;100548.63;4930596;29;20509;-70
2021/05/29 03:47:48;;;;;;;9.43;6.10;;;;;;;9.93;84.49;100558.06;4938155;29;20114;-70
2021/05/29 03:50:20;;;;;;;14.07;6.57;;;;;;;9.99;84.08;100555.53;4922974;28;20446;-70
2021/05/29 03:52:46;;;;;;;8.85;6.13;;;;;;;9.91;83.91;100554.75;4922104;29;20063;-70
2021/05/29 03:55:14;;;;;;;7.47;5.95;;;;;;;9.83;85.13;100552.34;4930788;29;20043;-70
2021/05/29 03:57:40;;;;;;;11.00;6.70;;;;;;;9.81;85.73;100557.09;4928789;29;20064;-70
2021/05/29 04:00:09;;;;;;;9.30;6.93;;;;;;;9.75;86.13;100557.97;4926564;29;20073;-70
2021/05/29 04:02:35;;;;;;;9.57;6.82;;;;;;;9.69;86.46;100561.50;4931281;29;20040;-70
2021/05/29 04:05:01;;;;;;;13.93;7.30;;;;;;;9.72;85.75;100566.44;4935027;29;20040;-70
2021/05/29 04:07:26;;;;;;;10.18;6.30;;;;;;;9.77;85.34;100561.28;4922675;29;20031;-70
2021/05/29 04:09:52;;;;;;;11.57;5.82;;;;;;;9.89;85.11;100561.38;4927594;29;20572;-71
2021/05/29 04:12:17;;;;;;;8.25;5.60;;;;;;;9.90;84.71;100563.03;4931862;29;20042;-70
2021/05/29 04:14:43;;;;;;;9.48;5.00;;;;;;;9.99;84.13;100563.59;4926992;29;20031;-71
2021/05/29 04:17:11;;;;;;;7.50;4.70;;;;;;;9.97;83.68;100569.19;4922308;29;20043;-70
2021/05/29 04:19:36;;;;;;;12.80;5.40;;;;;;;9.92;84.12;100567.16;4925025;29;20063;-71
2021/05/29 04:22:04;;;;;;;8.27;5.28;;;;;;;9.89;84.97;100569.47;4932286;29;20036;-71
2021/05/29 04:24:30;;;;;;;9.50;5.07;;;;;;;9.88;85.32;100563.25;4918061;29;20382;-71
2021/05/29 04:26:55;;;;;;;6.60;5.00;;;;;;;9.87;85.25;100567.00;4918022;29;20044;-70
2021/05/29 04:29:22;;;;;;;7.80;5.55;;;;;;;9.87;85.67;100569.69;4914630;29;20040;-71
2021/05/29 04:31:48;;;;;;;8.63;5.65;;;;;;;9.89;86.04;100567.59;4917111;29;20505;-71
2021/05/29 04:34:13;;;;;;;8.40;5.28;;;;;;;9.92;84.96;100575.25;4927167;29;20119;-70
2021/05/29 04:36:39;;;;;;;8.95;5.68;;;;;;;10.05;85.08;100574.31;4914615;28;20044;-71
2021/05/29 04:39:05;;;;;;;8.13;5.93;;;;;;;10.12;84.26;100576.97;4929488;29;20040;-72
2021/05/29 04:41:31;;;;;;;9.02;4.97;;;;;;;10.25;83.89;100571.47;4918409;29;20035;-70
2021/05/29 04:43:57;;;;;;;8.63;5.10;;;;;;;10.18;84.21;100584.16;4934069;29;20100;-70
2021/05/29 04:46:23;;;;;;;8.60;5.03;;;;;;;10.24;84.07;100593.22;4921985;29;20044;-70
2021/05/29 04:48:48;;;;;;;6.97;4.97;;;;;;;10.23;84.73;100584.31;4931009;29;20072;-70
2021/05/29 04:51:15;;;;;;;8.88;5.35;;;;;;;10.30;84.97;100586.13;4935642;29;20070;-71
2021/05/29 04:53:46;;;;;;;8.68;5.05;;;;;;;10.36;84.55;100585.25;4922100;29;20064;-70
2021/05/29 04:56:13;;;;;;;5.93;4.78;;;;;;;10.43;84.34;100590.59;4927377;29;20098;-70
2021/05/29 04:58:40;;;;;;;9.88;5.30;;;;;;;10.50;83.48;100591.38;4922563;29;20554;-70
2021/05/29 05:01:11;;;;;;;9.52;5.38;;;;;;;10.59;82.98;100590.03;4924133;29;20048;-71
2021/05/29 05:03:40;;;;;;;9.75;5.32;;;;;;;10.72;82.76;100594.50;4927134;29;20039;-70
2021/05/29 05:06:07;;;;;;;7.05;4.97;;;;;;;10.90;81.77;100603.63;4920848;29;20036;-70
2021/05/29 05:08:33;;;;;;;6.95;5.53;;;;;;;10.97;82.21;100604.38;4925762;29;20040;-71
2021/05/29 05:10:59;;;;;;;9.50;5.18;;;;;;;11.09;81.68;100602.59;4926284;29;20058;-70
2021/05/29 05:13:26;;;;;;;9.93;5.35;;;;;;;11.38;80.89;100600.19;4930477;29;20485;-71
2021/05/29 05:15:53;;;;;;;7.90;4.78;;;;;;;11.57;80.34;100600.19;4931564;29;20398;-71
2021/05/29 05:18:20;;;;;;;6.38;4.47;;;;;;;11.71;78.56;100607.03;4930716;29;20035;-71
2021/05/29 05:20:47;;;;;;;7.22;5.07;;;;;;;11.83;78.92;100603.56;4934494;29;20046;-70
2021/05/29 05:23:13;;;;;;;7.38;4.70;;;;;;;11.92;77.40;100607.56;4923429;29;20044;-71
2021/05/29 05:25:38;;;;;;;7.40;4.80;;;;;;;12.02;77.18;100617.03;4923533;29;20375;-71
2021/05/29 05:28:04;;;;;;;4.78;3.92;;;;;;;12.19;76.74;100615.31;4929816;29;20085;-71
2021/05/29 05:30:30;;;;;;;6.18;4.00;;;;;;;12.31;75.52;100620.72;4935385;29;20477;-71
2021/05/29 05:33:03;;;;;;;6.10;4.00;;;;;;;12.53;75.24;100617.47;4929383;29;20043;-71
2021/05/29 05:35:29;;;;;;;5.63;3.88;;;;;;;12.55;74.99;100618.88;4932009;29;20509;-71
2021/05/29 05:37:55;;;;;;;5.88;4.20;;;;;;;12.88;73.16;100628.25;4921523;29;20498;-70
2021/05/29 05:40:21;;;;;;;6.75;4.07;;;;;;;12.79;73.29;100624.28;4934051;29;20125;-70
2021/05/29 05:42:47;;;;;;;7.28;4.03;;;;;;;12.71;73.55;100619.22;4930378;29;20497;-70
2021/05/29 05:45:14;;;;;;;8.32;4.10;;;;;;;12.73;73.47;100625.22;4932162;29;20472;-70
2021/05/29 05:47:40;;;;;;;9.48;3.88;;;;;;;12.64;74.44;100623.91;4929994;29;20413;-70
2021/05/29 05:50:09;;;;;;;5.22;3.63;;;;;;;12.78;73.80;100638.03;4917654;29;20485;-70
2021/05/29 05:52:39;;;;;;;9.82;4.25;;;;;;;12.76;73.61;100634.75;4927227;29;20486;-70
2021/05/29 05:55:06;;;;;;;7.07;3.97;;;;;;;12.78;73.82;100640.75;4922281;28;20043;-70
2021/05/29 05:57:34;;;;;;;6.78;4.00;;;;;;;12.97;73.56;100633.31;4922307;29;20552;-70
2021/05/29 06:00:00;;;;;;;6.90;3.67;;;;;;;13.03;73.76;100640.47;4923025;29;20044;-71
2021/05/29 06:02:27;;;;;;;4.72;3.35;;;;;;;13.20;72.68;100648.69;4928340;29;20032;-71
2021/05/29 06:04:53;;;;;;;5.55;3.70;;;;;;;13.30;73.03;100648.91;4932158;29;20182;-70
2021/05/29 06:07:19;;;;;;;5.78;3.70;;;;;;;13.57;72.53;100653.00;4928556;29;20143;-70
2021/05/29 06:09:45;;;;;;;6.72;4.30;;;;;;;13.58;71.76;100654.66;4922207;29;20494;-72
2021/05/29 06:12:11;;;;;;;5.53;3.80;;;;;;;13.61;71.75;100656.88;4929756;29;20038;-71
2021/05/29 06:20:10;;;;;;;11.73;4.47;;;;;;;14.54;68.66;100660.41;4916926;29;19919;-73
2021/05/29 06:22:36;;;;;;;8.38;4.13;;;;;;;15.34;65.81;100661.06;4922240;28;20371;-73
2021/05/29 06:25:02;;;;;;;6.30;3.88;;;;;;;15.93;62.52;100661.50;4916673;29;20048;-74
2021/05/29 06:27:27;;;;;;;7.85;4.20;;;;;;;16.60;59.32;100664.00;4935788;29;20028;-72
2021/05/29 06:29:53;;;;;;;6.85;4.47;;;;;;;16.67;58.11;100668.13;4929227;28;20506;-71
2021/05/29 06:32:19;;;;;;;6.18;3.92;;;;;;;16.57;58.05;100670.75;4927542;29;20042;-72
2021/05/29 06:34:49;;;;;;;10.88;4.60;;;;;;;16.55;58.71;100672.91;4761349;28;10001067;-71
2021/05/29 06:37:15;;;;;;;9.45;5.43;;;;;;;16.23;59.29;100671.84;4927016;29;20239;-71
2021/05/29 06:39:44;;;;;;;6.32;4.18;;;;;;;16.63;58.47;100677.06;4926402;29;20126;-70
2021/05/29 06:42:10;;;;;;;13.30;4.57;;;;;;;16.47;58.23;100674.22;4930993;29;20054;-72
2021/05/29 06:44:36;;;;;;;7.95;4.05;;;;;;;16.73;56.70;100676.31;4927718;28;20052;-70
2021/05/29 06:47:03;;;;;;;10.50;4.10;;;;;;;16.83;57.47;100676.41;4911518;29;20032;-68
2021/05/29 06:49:28;;;;;;;10.73;4.57;;;;;;;16.33;59.18;100679.25;4928288;29;20044;-69
2021/05/29 06:52:01;;;;;;;8.00;5.35;;;;;;;16.02;60.79;100678.97;4915995;29;20049;-69
2021/05/29 06:59:47;;;;;;;16.05;5.32;;;;;;;15.60;61.99;100693.13;4923601;29;20051;-68
2021/05/29 07:02:13;;;;;;;11.10;5.82;;;;;;;15.58;61.66;100696.09;4933461;29;20039;-69
2021/05/29 07:04:38;;;;;;;9.25;6.05;;;;;;;15.14;61.38;100694.19;4930835;28;20034;-70
2021/05/29 07:07:04;;;;;;;6.90;5.35;;;;;;;15.48;62.23;100696.81;4917741;29;20405;-69
2021/05/29 07:09:30;;;;;;;11.65;5.07;;;;;;;15.74;61.39;100699.84;4929507;29;20044;-69
2021/05/29 07:11:56;;;;;;;7.90;5.53;;;;;;;15.75;61.90;100709.63;4936716;29;20366;-69
2021/05/29 07:14:22;;;;;;;13.30;6.35;;;;;;;15.73;61.22;100708.22;4922392;29;20035;-71
2021/05/29 07:16:51;;;;;;;10.15;5.70;;;;;;;15.36;63.41;100712.38;4925377;29;20497;-68
2021/05/29 07:19:18;;;;;;;8.85;5.93;;;;;;;15.19;63.88;100704.28;4928197;29;20036;-71
2021/05/29 07:21:45;;;;;;;13.85;5.50;;;;;;;15.14;63.73;100713.19;4932903;29;20035;-71
2021/05/29 07:24:11;;;;;;;9.93;5.57;;;;;;;15.25;63.88;100714.13;4920768;29;20050;-70
2021/05/29 07:26:38;;;;;;;10.68;5.78;;;;;;;15.16;64.78;100712.91;4912400;29;20044;-69
2021/05/29 07:29:03;;;;;;;10.55;5.68;;;;;;;15.30;64.64;100716.09;4944627;28;20040;-69
2021/05/29 07:31:29;;;;;;;11.60;5.72;;;;;;;15.43;63.49;100713.03;4928050;29;20087;-70
2021/05/29 07:33:56;;;;;;;10.75;5.85;;;;;;;15.51;61.71;100720.72;4929311;29;20032;-69
2021/05/29 07:36:22;;;;;;;15.35;6.82;;;;;;;15.84;60.78;100718.13;4929325;29;20075;-69
2021/05/29 07:38:48;;;;;;;11.73;6.70;;;;;;;16.00;60.54;100721.88;4920967;29;20039;-69
2021/05/29 07:41:14;;;;;;;11.15;6.75;;;;;;;15.94;60.06;100721.00;4923816;29;20544;-69
2021/05/29 07:43:40;;;;;;;11.98;6.40;;;;;;;15.99;60.36;100730.31;4930054;29;20066;-69
2021/05/29 07:46:05;;;;;;;10.93;6.55;;;;;;;16.41;59.01;100728.81;4927543;29;20397;-69
2021/05/29 07:48:33;;;;;;;10.13;5.30;;;;;;;16.58;59.84;100736.84;4926883;29;20075;-69
2021/05/29 07:51:03;;;;;;;10.60;5.60;;;;;;;16.65;57.86;100735.56;4927590;29;20044;-70
2021/05/29 07:53:39;;;;;;;13.55;5.72;;;;;;;16.57;58.79;100736.03;4927750;29;20040;-70
2021/05/29 07:56:08;;;;;;;11.20;5.90;;;;;;;16.43;59.09;100742.97;4931671;29;20035;-69
2021/05/29 07:58:34;;;;;;;14.38;5.65;;;;;;;16.16;58.47;100741.06;4925473;29;20047;-69
2021/05/29 08:01:00;;;;;;;10.00;5.82;;;;;;;16.33;58.88;100740.97;4921137;29;20044;-70
2021/05/29 08:03:28;;;;;;;10.20;6.10;;;;;;;16.74;58.14;100745.97;4928256;29;20082;-71
2021/05/29 08:05:55;;;;;;;10.00;6.45;;;;;;;16.87;57.92;100753.72;4930610;29;20031;-70
2021/05/29 08:08:24;;;;;;;7.70;5.50;;;;;;;16.73;58.48;100758.75;4931523;29;20032;-70
2021/05/29 08:10:53;;;;;;;15.05;5.95;;;;;;;16.77;58.36;100764.47;4928464;29;20039;-71
2021/05/29 08:13:20;;;;;;;10.25;5.68;;;;;;;16.71;58.30;100763.63;4930198;29;20156;-69
2021/05/29 08:15:47;;;;;;;10.18;5.13;;;;;;;17.02;58.02;100763.91;4927119;29;20044;-70
2021/05/29 08:18:16;;;;;;;10.07;5.60;;;;;;;17.04;57.46;100764.47;4934068;29;20044;-70
2021/05/29 08:20:42;;;;;;;9.98;6.32;;;;;;;16.95;57.63;100771.44;4929309;29;20573;-70
2021/05/29 08:23:08;;;;;;;12.32;5.45;;;;;;;17.29;56.29;100763.00;4922265;29;20039;-70
2021/05/29 08:25:34;;;;;;;10.90;5.90;;;;;;;17.39;56.54;100773.16;4934590;29;20040;-71
2021/05/29 08:28:02;;;;;;;9.73;5.88;;;;;;;17.27;56.78;100776.88;4924387;29;20152;-70
2021/05/29 08:30:28;;;;;;;8.93;5.60;;;;;;;17.04;58.06;100775.34;4591540;28;10000967;-70
2021/05/29 08:32:54;;;;;;;13.68;5.30;;;;;;;17.10;58.84;100778.94;4929545;29;20047;-70
2021/05/29 08:35:20;;;;;;;8.73;5.55;;;;;;;17.01;57.58;100780.50;4922633;29;20043;-70
2021/05/29 08:37:46;;;;;;;10.07;6.22;;;;;;;16.83;58.09;100787.97;4928749;29;20044;-70
2021/05/29 08:40:17;;;;;;;9.77;5.70;;;;;;;17.10;57.96;100785.19;4931236;29;20046;-70
2021/05/29 08:42:44;;;;;;;13.13;6.00;;;;;;;17.06;58.86;100784.06;4920251;29;20043;-70
2021/05/29 08:45:11;;;;;;;8.52;5.78;;;;;;;17.00;58.74;100785.13;4923325;29;20121;-69
2021/05/29 08:47:37;;;;;;;13.85;6.00;;;;;;;17.02;58.43;100788.41;4928260;28;20054;-70
2021/05/29 08:50:05;;;;;;;12.88;6.22;;;;;;;17.15;58.75;100795.31;4933888;29;20291;-70
2021/05/29 08:52:36;;;;;;;12.23;6.05;;;;;;;17.12;58.61;100787.66;4933980;29;20094;-71
2021/05/29 08:55:04;;;;;;;14.35;5.57;;;;;;;17.11;57.25;100795.00;4933167;29;20446;-70
2021/05/29 08:57:30;;;;;;;11.77;4.90;;;;;;;16.93;58.08;100806.25;4930218;29;20096;-69
2021/05/29 08:59:56;;;;;;;15.18;5.38;;;;;;;17.02;58.46;100793.03;4931474;29;20554;-69
2021/05/29 09:02:21;;;;;;;12.93;5.28;;;;;;;17.07;58.58;100801.25;4925710;29;20430;-69
2021/05/29 09:05:03;;;;;;;10.18;5.32;;;;;;;16.96;58.83;100800.28;4940074;29;20544;-70
2021/05/29 09:07:28;;;;;;;13.82;5.75;;;;;;;17.11;58.13;100797.72;4931351;29;20036;-70
2021/05/29 09:10:20;;;;;;;9.45;5.40;;;;;;;17.54;58.69;100796.91;4928609;29;20170;-69
2021/05/29 09:13:10;;;;;;;9.27;5.50;;;;;;;17.75;57.71;100802.50;4927864;29;20043;-69
2021/05/29 09:15:47;;;;;;;13.20;4.90;;;;;;;18.02;55.09;100799.63;4916113;29;20544;-70
2021/05/29 09:18:42;;;;;;;8.23;4.82;;;;;;;18.34;53.55;100806.00;4913067;29;20504;-69
2021/05/29 09:21:27;;;;;;;18.30;5.70;;;;;;;17.95;55.61;100808.03;4917073;29;20091;-69
2021/05/29 09:24:04;;;;;;;8.40;5.82;;;;;;;18.09;56.25;100799.41;4929403;29;20099;-69
2021/05/29 09:26:48;;;;;;;11.02;4.95;;;;;;;17.87;57.14;100802.25;4921352;29;20028;-69
2021/05/29 09:29:29;;;;;;;7.03;4.68;;;;;;;17.93;55.79;100810.22;4929536;29;20055;-69
2021/05/29 09:32:01;;;;;;;10.80;5.35;;;;;;;17.87;55.54;100796.81;4918716;29;20143;-69
2021/05/29 09:34:33;;;;;;;7.30;4.07;;;;;;;18.00;55.92;100807.25;4922038;29;20031;-70
2021/05/29 09:37:12;;;;;;;7.03;4.13;;;;;;;18.53;54.77;100815.34;4922065;29;20035;-70
2021/05/29 09:39:43;;;;;;;4.85;3.40;;;;;;;19.12;52.92;100813.22;4929051;29;20090;-69
2021/05/29 09:42:10;;;;;;;11.75;3.22;;;;;;;18.52;52.49;100815.59;4920687;29;20039;-70
2021/05/29 09:44:37;;;;;;;8.50;3.13;;;;;;;18.34;52.41;100817.72;4931105;29;20047;-70
2021/05/29 09:47:05;;;;;;;11.07;3.70;;;;;;;18.93;52.74;100828.47;4923532;29;20079;-70
2021/05/29 09:49:54;;;;;;;6.70;3.45;;;;;;;19.06;53.10;100824.44;4936839;29;20030;-70
2021/05/29 09:52:40;;;;;;;12.30;3.60;;;;;;;19.26;51.45;100812.66;4938663;29;20039;-70
2021/05/29 09:55:08;;;;;;;5.50;3.40;;;;;;;19.20;51.99;100814.59;4921912;29;20032;-70
2021/05/29 09:57:57;;;;;;;8.63;3.42;;;;;;;19.54;51.72;100816.72;4919742;29;20040;-70
2021/05/29 10:00:41;;;;;;;9.07;4.28;;;;;;;19.09;52.21;100819.22;4911859;29;20058;-70
2021/05/29 10:03:07;;;;;;;9.27;4.05;;;;;;;19.33;51.51;100813.19;4923818;29;20482;-70
2021/05/29 10:05:35;;;;;;;6.85;3.60;;;;;;;19.13;51.44;100827.69;4928301;29;20035;-69
2021/05/29 10:08:01;;;;;;;4.38;3.00;;;;;;;19.14;51.11;100821.94;4925912;29;20036;-70
2021/05/29 10:10:28;;;;;;;9.43;3.17;;;;;;;19.46;50.67;100825.47;4912116;29;20091;-70
2021/05/29 10:12:53;;;;;;;10.02;3.85;;;;;;;19.19;51.58;100826.59;4922116;29;20047;-71
2021/05/29 10:15:20;;;;;;;4.47;3.10;;;;;;;19.15;52.22;100828.25;4926233;29;20038;-71
2021/05/29 10:17:49;;;;;;;6.88;3.33;;;;;;;19.16;52.50;100829.88;4929812;29;20083;-77
2021/05/29 10:20:16;;;;;;;8.10;3.45;;;;;;;19.09;51.53;100826.63;4933083;29;20115;-75
2021/05/29 10:22:44;;;;;;;8.52;3.08;;;;;;;19.21;51.73;100829.88;4932475;29;20050;-70
2021/05/29 10:25:14;;;;;;;7.07;3.75;;;;;;;18.94;52.03;100830.13;4933124;29;20032;-75
2021/05/29 10:27:46;;;;;;;9.15;3.35;;;;;;;18.81;53.26;100828.75;4929173;29;20127;-75
2021/05/29 10:30:13;;;;;;;6.22;3.00;;;;;;;18.78;53.22;100832.03;4927866;29;20032;-74
2021/05/29 10:32:39;;;;;;;14.35;2.92;;;;;;;18.66;53.24;100829.53;4928699;29;20118;-75
2021/05/29 10:35:07;;;;;;;6.55;3.40;;;;;;;18.59;53.65;100835.28;4922759;29;20035;-75
2021/05/29 10:37:42;;;;;;;10.40;3.20;;;;;;;18.75;52.28;100830.66;4927787;29;20036;-74
2021/05/29 10:40:24;;;;;;;8.57;3.00;;;;;;;18.89;52.77;100833.69;4909980;29;20039;-73
2021/05/29 10:43:13;;;;;;;9.57;3.53;;;;;;;18.56;52.94;100833.09;4916207;29;20043;-74
2021/05/29 10:46:02;;;;;;;8.23;3.58;;;;;;;18.53;53.31;100831.69;4913371;29;20059;-73
2021/05/29 10:48:28;;;;;;;7.45;3.03;;;;;;;18.78;53.12;100830.09;4920614;29;20103;-74
2021/05/29 10:50:56;;;;;;;7.00;3.67;;;;;;;18.80;52.60;100835.31;4933245;29;20063;-73
2021/05/29 10:54:06;;;;;;;6.35;3.25;;;;;;;19.39;51.71;100819.47;4913730;29;20347;-71
2021/05/29 10:56:33;;;;;;;6.05;3.10;;;;;;;19.22;52.63;100826.06;4882831;29;20071;-73
2021/05/29 10:59:05;;;;;;;7.40;3.45;;;;;;;19.26;51.73;100829.03;4906388;29;20072;-73
2021/05/29 11:01:41;;;;;;;9.82;3.17;;;;;;;19.32;52.12;100830.69;4888537;29;20506;-74
2021/05/29 11:04:20;;;;;;;16.33;3.83;;;;;;;19.34;51.56;100833.16;4886772;29;20067;-73
2021/05/29 11:06:54;;;;;;;6.22;3.47;;;;;;;19.31;50.04;100823.56;4542428;29;10000657;-71
2021/05/29 11:09:25;;;;;;;8.98;3.30;;;;;;;19.24;51.26;100823.88;4884757;29;20045;-71
2021/05/29 11:11:55;;;;;;;10.82;3.05;;;;;;;19.72;50.42;100829.00;4886169;29;20506;-70
2021/05/29 11:14:22;;;;;;;6.50;3.22;;;;;;;20.18;47.67;100821.72;4880115;29;20047;-70
2021/05/29 11:16:52;;;;;;;6.90;2.88;;;;;;;19.71;48.89;100813.69;4885734;29;20127;-72
2021/05/29 11:19:19;;;;;;;6.78;3.17;;;;;;;19.47;49.51;100816.19;4887636;29;20044;-70
2021/05/29 11:22:12;;;;;;;6.53;3.25;;;;;;;19.37;51.59;100829.88;4890276;29;20047;-72
2021/05/29 11:24:50;;;;;;;9.90;3.50;;;;;;;19.09;51.00;100826.63;4888986;29;20550;-71
2021/05/29 11:27:23;;;;;;;5.72;3.15;;;;;;;19.33;50.05;100817.84;4886482;29;20096;-71
2021/05/29 11:30:04;;;;;;;8.80;3.40;;;;;;;19.76;50.43;100815.56;4890930;29;20099;-70
2021/05/29 11:35:23;;;;;;;5.60;3.38;;;;;;;20.26;46.84;100828.50;4920373;29;20035;-72
2021/05/29 11:37:57;;;;;;;13.65;4.15;;;;;;;20.14;46.77;100824.19;4911874;28;20044;-71
2021/05/29 11:40:41;;;;;;;11.20;3.30;;;;;;;20.23;46.84;100829.09;4908319;29;20063;-71
2021/05/29 11:43:07;;;;;;;;;;;;;;;20.58;45.98;100830.00;4918029;29;20071;-70
2021/05/29 11:45:32;;;;;;;10.57;3.40;;;;;;;20.31;45.74;100833.97;4916977;28;19965;-71